sensor_id;sensor_type;location;lat;lon;timestamp;pressure;altitude;pressure_sealevel;temperature;humidity
6423;BME280;3244;42.708;23.288;2022-07-10T00:00:10;94939.81;;;20.04;71.79
6423;BME280;3244;42.708;23.288;2022-07-10T00:02:38;94929.94;;;20.09;71.40
6423;BME280;3244;42.708;23.288;2022-07-10T00:05:06;94942.84;;;20.09;71.33
6423;BME280;3244;42.708;23.288;2022-07-10T00:07:32;94930.88;;;20.08;71.30
6423;BME280;3244;42.708;23.288;2022-07-10T00:10:02;94932.28;;;20.01;71.53
6423;BME280;3244;42.708;23.288;2022-07-10T00:12:29;94931.59;;;20.10;71.30
6423;BME280;3244;42.708;23.288;2022-07-10T00:14:56;94928.47;;;20.18;71.07
6423;BME280;3244;42.708;23.288;2022-07-10T00:17:23;94934.94;;;20.23;70.73
6423;BME280;3244;42.708;23.288;2022-07-10T00:19:50;94933.34;;;20.10;70.95
6423;BME280;3244;42.708;23.288;2022-07-10T00:22:17;94936.25;;;20.05;71.23
6423;BME280;3244;42.708;23.288;2022-07-10T00:24:43;94929.94;;;19.98;71.60
6423;BME280;3244;42.708;23.288;2022-07-10T00:27:11;94927.41;;;19.85;71.92
6423;BME280;3244;42.708;23.288;2022-07-10T00:29:38;94923.34;;;19.94;71.84
6423;BME280;3244;42.708;23.288;2022-07-10T00:32:06;94926.34;;;19.88;72.06
6423;BME280;3244;42.708;23.288;2022-07-10T00:34:33;94923.78;;;19.88;71.82
6423;BME280;3244;42.708;23.288;2022-07-10T00:37:00;94922.09;;;19.76;72.39
6423;BME280;3244;42.708;23.288;2022-07-10T00:39:27;94926.25;;;19.65;72.89
6423;BME280;3244;42.708;23.288;2022-07-10T00:41:54;94925.59;;;19.75;72.22
6423;BME280;3244;42.708;23.288;2022-07-10T00:44:22;94921.88;;;19.79;72.26
6423;BME280;3244;42.708;23.288;2022-07-10T00:46:49;94920.34;;;19.52;72.95
6423;BME280;3244;42.708;23.288;2022-07-10T00:49:16;94919.09;;;19.32;74.33
6423;BME280;3244;42.708;23.288;2022-07-10T00:51:43;94908.75;;;19.09;75.66
6423;BME280;3244;42.708;23.288;2022-07-10T00:54:10;94906.00;;;18.86;76.06
6423;BME280;3244;42.708;23.288;2022-07-10T00:56:37;94912.06;;;18.34;77.65
6423;BME280;3244;42.708;23.288;2022-07-10T00:59:04;94917.34;;;18.46;78.59
6423;BME280;3244;42.708;23.288;2022-07-10T01:01:33;94907.56;;;18.25;78.47
6423;BME280;3244;42.708;23.288;2022-07-10T01:04:00;94906.84;;;17.57;81.59
6423;BME280;3244;42.708;23.288;2022-07-10T01:06:27;94907.38;;;17.21;84.00
6423;BME280;3244;42.708;23.288;2022-07-10T01:08:54;94905.69;;;16.93;85.45
6423;BME280;3244;42.708;23.288;2022-07-10T01:11:21;94909.81;;;16.95;85.63
6423;BME280;3244;42.708;23.288;2022-07-10T01:13:48;94898.91;;;17.33;84.64
6423;BME280;3244;42.708;23.288;2022-07-10T01:16:15;94902.78;;;17.67;83.64
6423;BME280;3244;42.708;23.288;2022-07-10T01:18:43;94904.69;;;17.90;82.30
6423;BME280;3244;42.708;23.288;2022-07-10T01:21:25;94899.84;;;17.86;82.03
6423;BME280;3244;42.708;23.288;2022-07-10T01:23:52;94898.25;;;18.10;80.48
6423;BME280;3244;42.708;23.288;2022-07-10T01:26:19;94897.97;;;18.27;79.83
6423;BME280;3244;42.708;23.288;2022-07-10T01:28:48;94893.66;;;18.41;78.96
6423;BME280;3244;42.708;23.288;2022-07-10T01:31:16;94892.84;;;18.53;78.67
6423;BME280;3244;42.708;23.288;2022-07-10T01:33:43;94889.22;;;18.43;78.63
6423;BME280;3244;42.708;23.288;2022-07-10T01:36:11;94888.91;;;18.34;78.43
6423;BME280;3244;42.708;23.288;2022-07-10T01:38:39;94884.91;;;18.30;78.99
6423;BME280;3244;42.708;23.288;2022-07-10T01:41:06;94881.28;;;18.08;79.56
6423;BME280;3244;42.708;23.288;2022-07-10T01:43:34;94877.66;;;17.97;80.28
6423;BME280;3244;42.708;23.288;2022-07-10T01:46:01;94876.44;;;18.03;79.80
6423;BME280;3244;42.708;23.288;2022-07-10T01:48:28;94878.41;;;17.99;80.13
6423;BME280;3244;42.708;23.288;2022-07-10T01:50:55;94881.25;;;17.95;80.17
6423;BME280;3244;42.708;23.288;2022-07-10T01:53:21;94876.13;;;17.95;80.25
6423;BME280;3244;42.708;23.288;2022-07-10T01:55:50;94881.78;;;18.00;80.18
6423;BME280;3244;42.708;23.288;2022-07-10T01:58:17;94877.78;;;18.09;79.33
6423;BME280;3244;42.708;23.288;2022-07-10T02:00:43;94878.09;;;18.17;79.45
6423;BME280;3244;42.708;23.288;2022-07-10T02:03:11;94880.56;;;18.18;78.87
6423;BME280;3244;42.708;23.288;2022-07-10T02:05:55;94873.25;;;18.12;78.85
6423;BME280;3244;42.708;23.288;2022-07-10T02:08:22;94869.66;;;18.02;79.71
6423;BME280;3244;42.708;23.288;2022-07-10T02:10:50;94862.56;;;18.06;78.95
6423;BME280;3244;42.708;23.288;2022-07-10T02:13:17;94866.22;;;17.89;80.05
6423;BME280;3244;42.708;23.288;2022-07-10T02:15:45;94863.34;;;17.81;80.41
6423;BME280;3244;42.708;23.288;2022-07-10T02:18:12;94863.56;;;17.78;80.41
6423;BME280;3244;42.708;23.288;2022-07-10T02:20:39;94859.00;;;17.68;81.19
6423;BME280;3244;42.708;23.288;2022-07-10T02:23:06;94869.06;;;17.72;81.07
6423;BME280;3244;42.708;23.288;2022-07-10T02:25:33;94868.06;;;17.87;80.14
6423;BME280;3244;42.708;23.288;2022-07-10T02:28:01;94873.84;;;17.78;80.92
6423;BME280;3244;42.708;23.288;2022-07-10T02:30:28;94872.75;;;17.67;80.92
6423;BME280;3244;42.708;23.288;2022-07-10T02:32:54;94868.97;;;17.73;80.56
6423;BME280;3244;42.708;23.288;2022-07-10T02:35:21;94860.47;;;17.85;80.60
6423;BME280;3244;42.708;23.288;2022-07-10T02:37:48;94867.19;;;18.00;79.55
6423;BME280;3244;42.708;23.288;2022-07-10T02:40:15;94859.53;;;17.86;79.60
6423;BME280;3244;42.708;23.288;2022-07-10T02:42:42;94867.50;;;17.96;79.46
6423;BME280;3244;42.708;23.288;2022-07-10T02:45:10;94863.78;;;18.00;78.95
6423;BME280;3244;42.708;23.288;2022-07-10T02:47:37;94868.31;;;17.96;79.28
6423;BME280;3244;42.708;23.288;2022-07-10T02:50:04;94863.84;;;17.86;80.02
6423;BME280;3244;42.708;23.288;2022-07-10T02:52:31;94870.66;;;17.87;80.01
6423;BME280;3244;42.708;23.288;2022-07-10T02:54:58;94875.78;;;17.87;79.74
6423;BME280;3244;42.708;23.288;2022-07-10T02:57:25;94871.13;;;17.66;80.28
6423;BME280;3244;42.708;23.288;2022-07-10T02:59:53;94876.13;;;17.41;81.35
6423;BME280;3244;42.708;23.288;2022-07-10T03:02:21;94877.88;;;17.41;81.66
6423;BME280;3244;42.708;23.288;2022-07-10T03:04:48;94879.69;;;17.53;80.81
6423;BME280;3244;42.708;23.288;2022-07-10T03:07:14;94879.78;;;17.51;81.42
6423;BME280;3244;42.708;23.288;2022-07-10T03:09:41;94893.56;;;17.36;81.67
6423;BME280;3244;42.708;23.288;2022-07-10T03:12:08;94887.53;;;17.37;81.31
6423;BME280;3244;42.708;23.288;2022-07-10T03:14:35;94884.56;;;17.43;81.66
6423;BME280;3244;42.708;23.288;2022-07-10T03:17:02;94887.69;;;17.48;81.10
6423;BME280;3244;42.708;23.288;2022-07-10T03:19:30;94891.41;;;17.30;81.62
6423;BME280;3244;42.708;23.288;2022-07-10T03:21:58;94892.56;;;17.39;81.87
6423;BME280;3244;42.708;23.288;2022-07-10T03:24:25;94894.34;;;17.24;82.36
6423;BME280;3244;42.708;23.288;2022-07-10T03:26:52;94897.66;;;17.12;82.91
6423;BME280;3244;42.708;23.288;2022-07-10T03:29:19;94907.66;;;17.16;83.45
6423;BME280;3244;42.708;23.288;2022-07-10T03:31:46;94902.13;;;17.63;81.09
6423;BME280;3244;42.708;23.288;2022-07-10T03:34:12;94896.41;;;17.99;80.12
6423;BME280;3244;42.708;23.288;2022-07-10T03:36:40;94900.84;;;18.35;77.92
6423;BME280;3244;42.708;23.288;2022-07-10T03:39:07;94901.41;;;18.66;77.25
6423;BME280;3244;42.708;23.288;2022-07-10T03:41:35;94895.03;;;19.21;75.02
6423;BME280;3244;42.708;23.288;2022-07-10T03:44:02;94891.53;;;19.58;73.08
6423;BME280;3244;42.708;23.288;2022-07-10T03:46:28;94894.16;;;19.69;72.77
6423;BME280;3244;42.708;23.288;2022-07-10T03:48:55;94885.53;;;19.82;72.15
6423;BME280;3244;42.708;23.288;2022-07-10T03:51:22;94896.19;;;20.12;71.15
6423;BME280;3244;42.708;23.288;2022-07-10T03:53:51;94888.28;;;20.26;70.25
6423;BME280;3244;42.708;23.288;2022-07-10T03:56:17;94892.00;;;21.02;68.41
6423;BME280;3244;42.708;23.288;2022-07-10T03:58:58;94883.03;;;21.39;66.46
6423;BME280;3244;42.708;23.288;2022-07-10T04:01:25;94890.16;;;21.90;65.05
6423;BME280;3244;42.708;23.288;2022-07-10T04:03:51;94884.88;;;22.45;62.66
6423;BME280;3244;42.708;23.288;2022-07-10T04:06:18;94885.81;;;22.02;63.51
6423;BME280;3244;42.708;23.288;2022-07-10T04:08:45;94891.97;;;22.73;62.13
6423;BME280;3244;42.708;23.288;2022-07-10T04:11:13;94876.09;;;23.27;60.07
6423;BME280;3244;42.708;23.288;2022-07-10T04:13:41;94876.13;;;23.37;59.17
6423;BME280;3244;42.708;23.288;2022-07-10T04:16:08;94869.97;;;22.88;61.00
6423;BME280;3244;42.708;23.288;2022-07-10T04:18:38;94872.00;;;22.64;61.76
6423;BME280;3244;42.708;23.288;2022-07-10T04:21:05;94872.22;;;22.30;62.99
6423;BME280;3244;42.708;23.288;2022-07-10T04:23:32;94872.75;;;21.60;64.88
6423;BME280;3244;42.708;23.288;2022-07-10T04:25:59;94870.22;;;21.49;65.67
6423;BME280;3244;42.708;23.288;2022-07-10T04:28:27;94867.94;;;21.56;65.32
6423;BME280;3244;42.708;23.288;2022-07-10T04:30:54;94867.41;;;21.52;65.66
6423;BME280;3244;42.708;23.288;2022-07-10T04:33:21;94868.53;;;21.59;65.62
6423;BME280;3244;42.708;23.288;2022-07-10T04:35:47;94864.81;;;21.41;65.61
6423;BME280;3244;42.708;23.288;2022-07-10T04:38:14;94860.28;;;21.22;66.10
6423;BME280;3244;42.708;23.288;2022-07-10T04:40:41;94868.88;;;21.23;66.06
6423;BME280;3244;42.708;23.288;2022-07-10T04:43:08;94862.06;;;21.22;66.43
6423;BME280;3244;42.708;23.288;2022-07-10T04:45:37;94863.91;;;21.31;65.79
6423;BME280;3244;42.708;23.288;2022-07-10T04:48:04;94868.84;;;21.12;66.83
6423;BME280;3244;42.708;23.288;2022-07-10T04:50:31;94879.75;;;21.37;65.92
6423;BME280;3244;42.708;23.288;2022-07-10T04:52:58;94874.44;;;21.50;65.38
6423;BME280;3244;42.708;23.288;2022-07-10T04:55:25;94867.94;;;21.88;64.17
6423;BME280;3244;42.708;23.288;2022-07-10T04:57:52;94870.94;;;22.66;61.66
6423;BME280;3244;42.708;23.288;2022-07-10T05:00:19;94870.03;;;23.07;60.78
6423;BME280;3244;42.708;23.288;2022-07-10T05:02:47;94866.47;;;22.99;61.02
6423;BME280;3244;42.708;23.288;2022-07-10T05:05:14;94864.94;;;23.36;59.42
6423;BME280;3244;42.708;23.288;2022-07-10T05:07:41;94864.28;;;23.04;60.06
6423;BME280;3244;42.708;23.288;2022-07-10T05:10:08;94853.31;;;22.81;61.13
6423;BME280;3244;42.708;23.288;2022-07-10T05:12:35;94862.53;;;22.23;62.52
6423;BME280;3244;42.708;23.288;2022-07-10T05:15:02;94874.25;;;22.06;63.41
6423;BME280;3244;42.708;23.288;2022-07-10T05:17:29;94862.66;;;22.21;62.51
6423;BME280;3244;42.708;23.288;2022-07-10T05:19:58;94864.72;;;22.48;61.67
6423;BME280;3244;42.708;23.288;2022-07-10T05:22:25;94865.00;;;23.65;58.49
6423;BME280;3244;42.708;23.288;2022-07-10T05:24:52;94850.72;;;25.75;52.59
6423;BME280;3244;42.708;23.288;2022-07-10T05:27:19;94852.28;;;26.99;49.58
6423;BME280;3244;42.708;23.288;2022-07-10T05:29:45;94860.34;;;27.72;47.04
6423;BME280;3244;42.708;23.288;2022-07-10T05:32:12;94846.84;;;27.93;46.24
6423;BME280;3244;42.708;23.288;2022-07-10T05:34:40;94852.41;;;28.55;45.31
6423;BME280;3244;42.708;23.288;2022-07-10T05:37:08;94851.09;;;29.62;42.68
6423;BME280;3244;42.708;23.288;2022-07-10T05:39:35;94852.47;;;29.02;43.60
6423;BME280;3244;42.708;23.288;2022-07-10T05:42:02;94845.56;;;29.18;43.09
6423;BME280;3244;42.708;23.288;2022-07-10T05:44:29;94835.56;;;28.66;44.04
6423;BME280;3244;42.708;23.288;2022-07-10T05:46:56;94836.16;;;28.92;43.81
6423;BME280;3244;42.708;23.288;2022-07-10T05:49:22;94844.25;;;29.14;43.25
6423;BME280;3244;42.708;23.288;2022-07-10T05:51:49;94850.97;;;29.47;43.07
6423;BME280;3244;42.708;23.288;2022-07-10T05:54:17;94845.53;;;30.10;40.88
6423;BME280;3244;42.708;23.288;2022-07-10T05:56:44;94848.00;;;29.58;41.75
6423;BME280;3244;42.708;23.288;2022-07-10T05:59:11;94834.09;;;29.19;42.40
6423;BME280;3244;42.708;23.288;2022-07-10T06:01:38;94837.44;;;29.43;42.25
6423;BME280;3244;42.708;23.288;2022-07-10T06:04:04;94841.44;;;28.68;44.02
6423;BME280;3244;42.708;23.288;2022-07-10T06:06:31;94843.63;;;27.41;46.19
6423;BME280;3244;42.708;23.288;2022-07-10T06:08:58;94846.03;;;27.93;45.52
6423;BME280;3244;42.708;23.288;2022-07-10T06:11:27;94842.13;;;28.29;44.86
6423;BME280;3244;42.708;23.288;2022-07-10T06:13:53;94839.69;;;29.07;42.66
6423;BME280;3244;42.708;23.288;2022-07-10T06:16:21;94843.28;;;29.76;41.78
6423;BME280;3244;42.708;23.288;2022-07-10T06:18:48;94842.66;;;30.20;40.67
6423;BME280;3244;42.708;23.288;2022-07-10T06:21:14;94838.25;;;31.02;39.14
6423;BME280;3244;42.708;23.288;2022-07-10T06:23:44;94835.22;;;30.46;39.76
6423;BME280;3244;42.708;23.288;2022-07-10T06:26:11;94841.63;;;29.53;41.26
6423;BME280;3244;42.708;23.288;2022-07-10T06:28:39;94834.59;;;28.02;44.11
6423;BME280;3244;42.708;23.288;2022-07-10T06:31:06;94847.50;;;26.61;47.87
6423;BME280;3244;42.708;23.288;2022-07-10T06:33:33;94835.66;;;26.05;48.85
6423;BME280;3244;42.708;23.288;2022-07-10T06:36:00;94833.41;;;26.46;48.40
6423;BME280;3244;42.708;23.288;2022-07-10T06:38:27;94837.44;;;26.66;47.79
6423;BME280;3244;42.708;23.288;2022-07-10T06:40:54;94834.44;;;27.21;46.79
6423;BME280;3244;42.708;23.288;2022-07-10T06:43:20;94838.00;;;27.12;47.16
6423;BME280;3244;42.708;23.288;2022-07-10T06:45:49;94834.97;;;26.64;48.17
6423;BME280;3244;42.708;23.288;2022-07-10T06:48:15;94833.97;;;26.14;48.68
6423;BME280;3244;42.708;23.288;2022-07-10T06:50:44;94835.50;;;25.53;50.55
6423;BME280;3244;42.708;23.288;2022-07-10T06:53:11;94836.41;;;25.44;50.61
6423;BME280;3244;42.708;23.288;2022-07-10T06:55:38;94836.84;;;25.57;50.63
6423;BME280;3244;42.708;23.288;2022-07-10T06:58:04;94834.78;;;25.79;50.15
6423;BME280;3244;42.708;23.288;2022-07-10T07:00:31;94832.72;;;25.64;50.82
6423;BME280;3244;42.708;23.288;2022-07-10T07:02:59;94833.59;;;25.28;51.51
6423;BME280;3244;42.708;23.288;2022-07-10T07:05:26;94827.28;;;25.13;51.92
6423;BME280;3244;42.708;23.288;2022-07-10T07:07:53;94830.03;;;24.74;53.31
6423;BME280;3244;42.708;23.288;2022-07-10T07:10:20;94830.00;;;24.37;54.91
6423;BME280;3244;42.708;23.288;2022-07-10T07:12:46;94824.81;;;24.37;55.28
6423;BME280;3244;42.708;23.288;2022-07-10T07:15:13;94822.88;;;24.76;54.93
6423;BME280;3244;42.708;23.288;2022-07-10T07:17:42;94824.63;;;25.67;53.18
6423;BME280;3244;42.708;23.288;2022-07-10T07:20:34;94821.44;;;26.35;50.46
6423;BME280;3244;42.708;23.288;2022-07-10T07:23:18;94822.66;;;26.05;50.42
6423;BME280;3244;42.708;23.288;2022-07-10T07:25:45;94828.63;;;26.23;50.52
6423;BME280;3244;42.708;23.288;2022-07-10T07:28:13;94818.41;;;26.04;50.47
6423;BME280;3244;42.708;23.288;2022-07-10T07:30:42;94807.41;;;25.74;51.28
6423;BME280;3244;42.708;23.288;2022-07-10T07:33:09;94809.97;;;25.66;51.31
6423;BME280;3244;42.708;23.288;2022-07-10T07:35:37;94812.22;;;25.52;51.76
6423;BME280;3244;42.708;23.288;2022-07-10T07:38:04;94808.47;;;25.82;52.14
6423;BME280;3244;42.708;23.288;2022-07-10T07:40:32;94817.84;;;25.74;51.32
6423;BME280;3244;42.708;23.288;2022-07-10T07:42:59;94815.13;;;26.02;51.08
6423;BME280;3244;42.708;23.288;2022-07-10T07:45:26;94805.50;;;25.76;50.61
6423;BME280;3244;42.708;23.288;2022-07-10T07:47:54;94811.75;;;25.66;51.39
6423;BME280;3244;42.708;23.288;2022-07-10T07:50:22;94814.66;;;25.98;51.01
6423;BME280;3244;42.708;23.288;2022-07-10T07:52:52;94808.31;;;26.27;50.10
6423;BME280;3244;42.708;23.288;2022-07-10T07:55:20;94808.16;;;26.28;49.29
6423;BME280;3244;42.708;23.288;2022-07-10T07:57:50;94812.91;;;26.07;49.74
6423;BME280;3244;42.708;23.288;2022-07-10T08:00:19;94805.34;;;25.96;50.13
6423;BME280;3244;42.708;23.288;2022-07-10T08:02:47;94798.63;;;25.58;49.69
6423;BME280;3244;42.708;23.288;2022-07-10T08:05:14;94797.53;;;25.42;50.03
6423;BME280;3244;42.708;23.288;2022-07-10T08:07:43;94803.59;;;25.33;50.92
6423;BME280;3244;42.708;23.288;2022-07-10T08:10:13;94803.88;;;25.30;50.08
6423;BME280;3244;42.708;23.288;2022-07-10T08:12:40;94797.72;;;25.49;50.08
6423;BME280;3244;42.708;23.288;2022-07-10T08:15:07;94803.56;;;25.79;50.00
6423;BME280;3244;42.708;23.288;2022-07-10T08:17:34;94800.06;;;25.88;49.35
6423;BME280;3244;42.708;23.288;2022-07-10T08:20:01;94799.69;;;25.47;49.77
6423;BME280;3244;42.708;23.288;2022-07-10T08:22:28;94804.06;;;25.47;49.83
6423;BME280;3244;42.708;23.288;2022-07-10T08:24:55;94798.44;;;25.69;49.16
6423;BME280;3244;42.708;23.288;2022-07-10T08:27:24;94810.19;;;25.73;49.44
6423;BME280;3244;42.708;23.288;2022-07-10T08:29:51;94801.00;;;25.51;48.49
6423;BME280;3244;42.708;23.288;2022-07-10T08:32:18;94812.50;;;25.31;48.67
6423;BME280;3244;42.708;23.288;2022-07-10T08:34:44;94809.09;;;25.30;49.13
6423;BME280;3244;42.708;23.288;2022-07-10T08:37:11;94814.25;;;25.40;48.82
6423;BME280;3244;42.708;23.288;2022-07-10T08:39:38;94795.59;;;25.80;48.02
6423;BME280;3244;42.708;23.288;2022-07-10T08:42:06;94797.22;;;26.42;47.64
6423;BME280;3244;42.708;23.288;2022-07-10T08:44:34;94806.09;;;26.58;46.87
6423;BME280;3244;42.708;23.288;2022-07-10T08:47:02;94798.88;;;26.52;46.05
6423;BME280;3244;42.708;23.288;2022-07-10T08:49:30;94795.25;;;26.70;46.57
6423;BME280;3244;42.708;23.288;2022-07-10T08:51:59;94794.28;;;26.71;46.50
6423;BME280;3244;42.708;23.288;2022-07-10T08:54:30;94799.78;;;26.34;45.78
6423;BME280;3244;42.708;23.288;2022-07-10T08:56:58;94804.59;;;26.29;47.12
6423;BME280;3244;42.708;23.288;2022-07-10T08:59:26;94794.84;;;25.88;47.63
6423;BME280;3244;42.708;23.288;2022-07-10T09:01:54;94794.50;;;25.65;48.36
6423;BME280;3244;42.708;23.288;2022-07-10T09:04:22;94783.13;;;25.48;47.80
6423;BME280;3244;42.708;23.288;2022-07-10T09:06:53;94794.66;;;25.63;47.96
6423;BME280;3244;42.708;23.288;2022-07-10T09:09:20;94789.50;;;25.89;47.94
6423;BME280;3244;42.708;23.288;2022-07-10T09:11:47;94792.97;;;26.41;47.27
6423;BME280;3244;42.708;23.288;2022-07-10T09:14:15;94782.03;;;26.64;46.49
6423;BME280;3244;42.708;23.288;2022-07-10T09:16:43;94774.63;;;26.51;46.70
6423;BME280;3244;42.708;23.288;2022-07-10T09:19:17;94786.81;;;26.42;46.77
6423;BME280;3244;42.708;23.288;2022-07-10T09:21:45;94783.22;;;26.00;47.09
6423;BME280;3244;42.708;23.288;2022-07-10T09:24:12;94784.59;;;25.86;48.57
6423;BME280;3244;42.708;23.288;2022-07-10T09:26:40;94786.69;;;25.83;48.57
6423;BME280;3244;42.708;23.288;2022-07-10T09:29:09;94775.94;;;26.03;47.09
6423;BME280;3244;42.708;23.288;2022-07-10T09:31:49;94771.69;;;26.28;46.28
6423;BME280;3244;42.708;23.288;2022-07-10T09:34:18;94778.63;;;26.37;46.03
6423;BME280;3244;42.708;23.288;2022-07-10T09:37:17;94769.16;;;26.10;44.58
6423;BME280;3244;42.708;23.288;2022-07-10T09:39:51;94765.97;;;26.42;46.15
6423;BME280;3244;42.708;23.288;2022-07-10T09:42:25;94769.81;;;26.64;44.76
6423;BME280;3244;42.708;23.288;2022-07-10T09:44:52;94760.03;;;26.66;44.29
6423;BME280;3244;42.708;23.288;2022-07-10T09:47:21;94766.13;;;26.83;44.29
6423;BME280;3244;42.708;23.288;2022-07-10T09:49:50;94758.72;;;26.62;45.03
6423;BME280;3244;42.708;23.288;2022-07-10T09:52:18;94763.28;;;26.60;44.90
6423;BME280;3244;42.708;23.288;2022-07-10T09:54:45;94764.16;;;26.77;44.86
6423;BME280;3244;42.708;23.288;2022-07-10T09:57:13;94763.75;;;26.98;43.88
6423;BME280;3244;42.708;23.288;2022-07-10T09:59:43;94762.56;;;26.84;44.68
6423;BME280;3244;42.708;23.288;2022-07-10T10:02:11;94767.97;;;26.57;44.64
6423;BME280;3244;42.708;23.288;2022-07-10T10:04:41;94768.50;;;26.34;44.41
6423;BME280;3244;42.708;23.288;2022-07-10T10:07:11;94759.94;;;26.24;44.72
6423;BME280;3244;42.708;23.288;2022-07-10T10:09:41;94760.91;;;26.49;44.79
6423;BME280;3244;42.708;23.288;2022-07-10T10:12:16;94765.59;;;26.37;44.69
6423;BME280;3244;42.708;23.288;2022-07-10T10:14:47;94767.28;;;26.03;45.62
6423;BME280;3244;42.708;23.288;2022-07-10T10:17:16;94765.88;;;25.65;46.00
6423;BME280;3244;42.708;23.288;2022-07-10T10:19:44;94764.44;;;25.35;47.43
6423;BME280;3244;42.708;23.288;2022-07-10T10:22:33;94770.56;;;24.98;48.57
6423;BME280;3244;42.708;23.288;2022-07-10T10:25:01;94759.50;;;24.87;48.57
6423;BME280;3244;42.708;23.288;2022-07-10T10:27:29;94763.28;;;25.02;47.78
6423;BME280;3244;42.708;23.288;2022-07-10T10:29:56;94756.50;;;25.36;47.32
6423;BME280;3244;42.708;23.288;2022-07-10T10:32:23;94749.59;;;25.63;47.14
6423;BME280;3244;42.708;23.288;2022-07-10T10:34:50;94749.72;;;25.61;46.74
6423;BME280;3244;42.708;23.288;2022-07-10T10:37:37;94744.66;;;25.77;47.51
6423;BME280;3244;42.708;23.288;2022-07-10T10:40:07;94736.94;;;26.12;46.56
6423;BME280;3244;42.708;23.288;2022-07-10T10:42:36;94751.44;;;26.14;45.37
6423;BME280;3244;42.708;23.288;2022-07-10T10:45:32;94743.09;;;25.85;45.73
6423;BME280;3244;42.708;23.288;2022-07-10T10:48:04;94760.38;;;25.68;46.70
6423;BME280;3244;42.708;23.288;2022-07-10T10:50:39;94744.50;;;25.61;46.86
6423;BME280;3244;42.708;23.288;2022-07-10T10:53:14;94748.06;;;25.60;45.88
6423;BME280;3244;42.708;23.288;2022-07-10T10:56:21;94732.75;;;25.57;46.89
6423;BME280;3244;42.708;23.288;2022-07-10T10:58:48;94737.44;;;25.54;46.57
6423;BME280;3244;42.708;23.288;2022-07-10T11:01:28;94731.22;;;25.64;46.18
6423;BME280;3244;42.708;23.288;2022-07-10T11:04:15;94726.41;;;25.69;46.58
6423;BME280;3244;42.708;23.288;2022-07-10T11:06:44;94728.03;;;25.70;46.94
6423;BME280;3244;42.708;23.288;2022-07-10T11:09:27;94734.19;;;25.69;47.10
6423;BME280;3244;42.708;23.288;2022-07-10T11:12:01;94728.25;;;25.41;47.12
6423;BME280;3244;42.708;23.288;2022-07-10T11:14:29;94723.16;;;25.75;47.56
6423;BME280;3244;42.708;23.288;2022-07-10T11:16:56;94724.41;;;25.89;45.96
6423;BME280;3244;42.708;23.288;2022-07-10T11:19:24;94723.94;;;25.68;46.96
6423;BME280;3244;42.708;23.288;2022-07-10T11:21:59;94727.34;;;25.51;47.30
6423;BME280;3244;42.708;23.288;2022-07-10T11:24:40;94726.00;;;25.29;47.61
6423;BME280;3244;42.708;23.288;2022-07-10T11:27:29;94724.84;;;25.23;47.74
6423;BME280;3244;42.708;23.288;2022-07-10T11:30:01;94728.31;;;25.14;47.88
6423;BME280;3244;42.708;23.288;2022-07-10T11:32:28;94725.41;;;25.17;47.92
6423;BME280;3244;42.708;23.288;2022-07-10T11:34:55;94725.19;;;25.11;48.43
6423;BME280;3244;42.708;23.288;2022-07-10T11:37:22;94719.13;;;25.20;47.07
6423;BME280;3244;42.708;23.288;2022-07-10T11:40:10;94722.97;;;25.33;47.37
6423;BME280;3244;42.708;23.288;2022-07-10T11:42:49;94727.94;;;25.27;46.84
6423;BME280;3244;42.708;23.288;2022-07-10T11:45:27;94719.38;;;25.52;46.90
6423;BME280;3244;42.708;23.288;2022-07-10T11:47:54;94720.63;;;25.84;46.60
6423;BME280;3244;42.708;23.288;2022-07-10T11:50:21;94726.13;;;25.81;46.34
6423;BME280;3244;42.708;23.288;2022-07-10T11:52:49;94722.06;;;26.04;44.81
6423;BME280;3244;42.708;23.288;2022-07-10T11:55:19;94725.03;;;26.09;45.37
6423;BME280;3244;42.708;23.288;2022-07-10T11:57:46;94727.91;;;25.98;45.26
6423;BME280;3244;42.708;23.288;2022-07-10T12:00:25;94719.22;;;25.89;45.35
6423;BME280;3244;42.708;23.288;2022-07-10T12:02:53;94732.31;;;25.80;45.14
6423;BME280;3244;42.708;23.288;2022-07-10T12:05:31;94724.31;;;25.73;44.71
6423;BME280;3244;42.708;23.288;2022-07-10T12:07:58;94728.47;;;25.48;44.40
6423;BME280;3244;42.708;23.288;2022-07-10T12:10:27;94728.31;;;25.32;45.42
6423;BME280;3244;42.708;23.288;2022-07-10T12:13:03;94732.78;;;25.22;45.66
6423;BME280;3244;42.708;23.288;2022-07-10T12:15:36;94732.78;;;25.22;44.83
6423;BME280;3244;42.708;23.288;2022-07-10T12:18:05;94733.38;;;25.33;45.47
6423;BME280;3244;42.708;23.288;2022-07-10T12:20:32;94737.03;;;25.40;45.30
6423;BME280;3244;42.708;23.288;2022-07-10T12:22:59;94737.31;;;25.37;44.80
6423;BME280;3244;42.708;23.288;2022-07-10T12:25:28;94728.41;;;25.22;44.88
6423;BME280;3244;42.708;23.288;2022-07-10T12:27:55;94731.78;;;25.05;44.68
6423;BME280;3244;42.708;23.288;2022-07-10T12:30:23;94726.88;;;25.02;44.97
6423;BME280;3244;42.708;23.288;2022-07-10T12:32:50;94731.88;;;24.95;45.47
6423;BME280;3244;42.708;23.288;2022-07-10T12:35:17;94733.56;;;25.04;43.99
6423;BME280;3244;42.708;23.288;2022-07-10T12:37:48;94732.78;;;25.22;44.16
6423;BME280;3244;42.708;23.288;2022-07-10T12:40:32;94733.38;;;25.16;43.68
6423;BME280;3244;42.708;23.288;2022-07-10T12:43:02;94731.06;;;25.13;43.85
6423;BME280;3244;42.708;23.288;2022-07-10T12:45:30;94740.66;;;25.30;41.83
6423;BME280;3244;42.708;23.288;2022-07-10T12:47:57;94723.94;;;25.32;41.66
6423;BME280;3244;42.708;23.288;2022-07-10T12:50:24;94721.09;;;25.26;41.76
6423;BME280;3244;42.708;23.288;2022-07-10T12:53:07;94717.91;;;25.32;40.83
6423;BME280;3244;42.708;23.288;2022-07-10T12:55:38;94724.66;;;25.25;41.53
6423;BME280;3244;42.708;23.288;2022-07-10T12:58:07;94726.78;;;25.21;42.41
6423;BME280;3244;42.708;23.288;2022-07-10T13:00:43;94730.09;;;25.14;41.62
6423;BME280;3244;42.708;23.288;2022-07-10T13:03:18;94726.44;;;25.06;40.24
6423;BME280;3244;42.708;23.288;2022-07-10T13:05:45;94730.44;;;25.01;39.45
6423;BME280;3244;42.708;23.288;2022-07-10T13:08:13;94720.03;;;25.01;38.97
6423;BME280;3244;42.708;23.288;2022-07-10T13:10:44;94724.00;;;25.05;39.25
6423;BME280;3244;42.708;23.288;2022-07-10T13:13:11;94716.94;;;25.15;39.46
6423;BME280;3244;42.708;23.288;2022-07-10T13:15:39;94718.88;;;25.13;38.81
6423;BME280;3244;42.708;23.288;2022-07-10T13:18:15;94717.47;;;25.19;39.56